sensor_id;sensor_type;location;lat;lon;timestamp;pressure;altitude;pressure_sealevel;temperature;humidity
18504;BME280;9381;54.244;10.074;2023-11-19T00:04:59;100396.78;;;7.45;100.00
18504;BME280;9381;54.244;10.074;2023-11-19T00:10:00;100370.09;;;7.50;100.00
18504;BME280;9381;54.244;10.074;2023-11-19T00:15:10;100362.22;;;7.35;100.00
18504;BME280;9381;54.244;10.074;2023-11-19T00:20:15;100345.66;;;7.38;100.00
18504;BME280;9381;54.244;10.074;2023-11-19T00:25:15;100320.41;;;7.52;100.00
18504;BME280;9381;54.244;10.074;2023-11-19T00:30:15;100318.75;;;7.38;100.00
18504;BME280;9381;54.244;10.074;2023-11-19T00:35:16;100298.88;;;7.39;100.00
18504;BME280;9381;54.244;10.074;2023-11-19T00:40:17;100289.16;;;7.32;100.00
18504;BME280;9381;54.244;10.074;2023-11-19T00:45:18;100275.09;;;7.43;100.00
18504;BME280;9381;54.244;10.074;2023-11-19T00:50:18;100256.25;;;7.49;100.00
18504;BME280;9381;54.244;10.074;2023-11-19T00:55:19;100254.81;;;7.53;100.00
18504;BME280;9381;54.244;10.074;2023-11-19T01:00:19;100240.53;;;7.46;100.00
18504;BME280;9381;54.244;10.074;2023-11-19T01:05:22;100214.81;;;7.57;100.00
18504;BME280;9381;54.244;10.074;2023-11-19T01:10:23;100209.06;;;7.40;100.00
18504;BME280;9381;54.244;10.074;2023-11-19T01:15:23;100177.56;;;7.60;100.00
18504;BME280;9381;54.244;10.074;2023-11-19T01:20:24;100165.16;;;7.59;100.00
18504;BME280;9381;54.244;10.074;2023-11-19T01:25:24;100149.22;;;7.64;100.00
18504;BME280;9381;54.244;10.074;2023-11-19T01:30:25;100142.78;;;7.65;100.00
18504;BME280;9381;54.244;10.074;2023-11-19T01:35:25;100124.59;;;7.54;100.00
18504;BME280;9381;54.244;10.074;2023-11-19T01:40:26;100105.91;;;7.66;100.00
18504;BME280;9381;54.244;10.074;2023-11-19T01:45:30;100095.19;;;7.59;100.00
18504;BME280;9381;54.244;10.074;2023-11-19T01:50:31;100081.94;;;7.64;100.00
18504;BME280;9381;54.244;10.074;2023-11-19T01:55:33;100070.16;;;7.59;100.00
18504;BME280;9381;54.244;10.074;2023-11-19T02:00:33;100068.22;;;7.72;100.00
18504;BME280;9381;54.244;10.074;2023-11-19T02:05:34;100058.84;;;7.37;100.00
18504;BME280;9381;54.244;10.074;2023-11-19T02:10:35;100054.16;;;7.64;100.00
18504;BME280;9381;54.244;10.074;2023-11-19T02:15:36;100053.72;;;7.73;100.00
18504;BME280;9381;54.244;10.074;2023-11-19T02:20:36;100040.03;;;7.75;100.00
18504;BME280;9381;54.244;10.074;2023-11-19T02:25:37;100028.59;;;7.86;100.00
18504;BME280;9381;54.244;10.074;2023-11-19T02:30:38;100051.41;;;8.14;100.00
18504;BME280;9381;54.244;10.074;2023-11-19T02:35:38;100078.91;;;7.85;100.00
18504;BME280;9381;54.244;10.074;2023-11-19T02:40:40;99989.38;;;7.96;100.00
18504;BME280;9381;54.244;10.074;2023-11-19T02:45:41;99972.88;;;7.86;100.00
18504;BME280;9381;54.244;10.074;2023-11-19T02:50:42;99957.22;;;7.77;100.00
18504;BME280;9381;54.244;10.074;2023-11-19T02:55:42;99929.72;;;7.68;100.00
18504;BME280;9381;54.244;10.074;2023-11-19T03:00:48;99919.31;;;7.78;100.00
18504;BME280;9381;54.244;10.074;2023-11-19T03:05:52;99903.47;;;7.88;100.00
18504;BME280;9381;54.244;10.074;2023-11-19T03:10:52;99890.91;;;7.82;100.00
18504;BME280;9381;54.244;10.074;2023-11-19T03:15:53;99888.66;;;7.79;100.00
18504;BME280;9381;54.244;10.074;2023-11-19T03:20:54;99889.94;;;8.01;100.00
18504;BME280;9381;54.244;10.074;2023-11-19T03:25:54;99880.91;;;7.89;100.00
18504;BME280;9381;54.244;10.074;2023-11-19T03:30:54;99871.28;;;8.00;100.00
18504;BME280;9381;54.244;10.074;2023-11-19T03:35:56;99864.47;;;7.97;100.00
18504;BME280;9381;54.244;10.074;2023-11-19T03:40:56;99848.22;;;8.10;100.00
18504;BME280;9381;54.244;10.074;2023-11-19T03:45:57;99843.44;;;8.12;100.00
18504;BME280;9381;54.244;10.074;2023-11-19T03:50:57;99825.00;;;7.91;100.00
18504;BME280;9381;54.244;10.074;2023-11-19T03:55:57;99799.81;;;7.79;100.00
18504;BME280;9381;54.244;10.074;2023-11-19T04:00:58;99796.88;;;8.05;100.00
18504;BME280;9381;54.244;10.074;2023-11-19T04:05:59;99786.69;;;8.07;100.00
18504;BME280;9381;54.244;10.074;2023-11-19T04:10:59;99786.09;;;8.05;100.00
18504;BME280;9381;54.244;10.074;2023-11-19T04:16:01;99774.75;;;8.03;100.00
18504;BME280;9381;54.244;10.074;2023-11-19T04:21:06;99767.72;;;8.02;100.00
18504;BME280;9381;54.244;10.074;2023-11-19T04:26:06;99755.72;;;7.98;100.00
18504;BME280;9381;54.244;10.074;2023-11-19T04:31:07;99745.63;;;8.12;100.00
18504;BME280;9381;54.244;10.074;2023-11-19T04:36:10;99745.13;;;8.03;100.00
18504;BME280;9381;54.244;10.074;2023-11-19T04:41:10;99719.53;;;8.12;100.00
18504;BME280;9381;54.244;10.074;2023-11-19T04:46:11;99706.66;;;8.14;100.00
18504;BME280;9381;54.244;10.074;2023-11-19T04:51:11;99696.81;;;8.08;100.00
18504;BME280;9381;54.244;10.074;2023-11-19T04:56:12;99688.06;;;8.13;100.00
18504;BME280;9381;54.244;10.074;2023-11-19T05:01:14;99687.22;;;8.12;100.00
18504;BME280;9381;54.244;10.074;2023-11-19T05:06:17;99686.03;;;8.08;100.00
18504;BME280;9381;54.244;10.074;2023-11-19T05:11:17;99645.56;;;8.15;100.00
18504;BME280;9381;54.244;10.074;2023-11-19T05:16:20;99678.25;;;8.36;100.00
18504;BME280;9381;54.244;10.074;2023-11-19T05:21:21;99660.31;;;8.30;100.00
18504;BME280;9381;54.244;10.074;2023-11-19T05:26:23;99667.31;;;8.31;100.00
18504;BME280;9381;54.244;10.074;2023-11-19T05:31:23;99676.84;;;8.74;100.00
18504;BME280;9381;54.244;10.074;2023-11-19T05:36:23;99669.59;;;8.75;100.00
18504;BME280;9381;54.244;10.074;2023-11-19T05:41:24;99653.75;;;8.67;100.00
18504;BME280;9381;54.244;10.074;2023-11-19T05:46:24;99651.69;;;8.80;100.00
18504;BME280;9381;54.244;10.074;2023-11-19T05:51:27;99639.16;;;8.86;100.00
18504;BME280;9381;54.244;10.074;2023-11-19T05:56:27;99640.69;;;9.05;100.00
18504;BME280;9381;54.244;10.074;2023-11-19T06:01:35;99628.16;;;9.10;100.00
18504;BME280;9381;54.244;10.074;2023-11-19T06:06:37;99625.25;;;9.12;100.00
18504;BME280;9381;54.244;10.074;2023-11-19T06:11:37;99617.84;;;9.42;100.00
18504;BME280;9381;54.244;10.074;2023-11-19T06:16:37;99625.50;;;9.45;100.00
18504;BME280;9381;54.244;10.074;2023-11-19T06:21:40;99618.91;;;9.52;100.00
18504;BME280;9381;54.244;10.074;2023-11-19T06:26:40;99613.81;;;9.67;100.00
18504;BME280;9381;54.244;10.074;2023-11-19T06:31:41;99621.81;;;9.62;100.00
18504;BME280;9381;54.244;10.074;2023-11-19T06:36:42;99618.03;;;9.86;100.00
18504;BME280;9381;54.244;10.074;2023-11-19T06:41:46;99612.28;;;9.83;100.00
18504;BME280;9381;54.244;10.074;2023-11-19T06:46:48;99611.06;;;10.02;100.00
18504;BME280;9381;54.244;10.074;2023-11-19T06:51:48;99625.22;;;10.20;100.00
18504;BME280;9381;54.244;10.074;2023-11-19T06:56:49;99626.53;;;10.18;100.00
18504;BME280;9381;54.244;10.074;2023-11-19T07:01:56;99612.81;;;10.36;100.00
18504;BME280;9381;54.244;10.074;2023-11-19T07:06:57;99623.00;;;10.45;100.00
18504;BME280;9381;54.244;10.074;2023-11-19T07:11:58;99617.94;;;10.49;100.00
18504;BME280;9381;54.244;10.074;2023-11-19T07:17:00;99616.47;;;10.58;100.00
18504;BME280;9381;54.244;10.074;2023-11-19T07:22:00;99614.06;;;10.73;100.00
18504;BME280;9381;54.244;10.074;2023-11-19T07:27:00;99612.00;;;10.80;100.00
18504;BME280;9381;54.244;10.074;2023-11-19T07:32:04;99610.44;;;11.00;100.00
18504;BME280;9381;54.244;10.074;2023-11-19T07:37:05;99616.00;;;11.27;100.00
18504;BME280;9381;54.244;10.074;2023-11-19T07:42:05;99618.38;;;11.40;100.00
18504;BME280;9381;54.244;10.074;2023-11-19T07:47:06;99606.94;;;11.54;100.00
18504;BME280;9381;54.244;10.074;2023-11-19T07:52:06;99613.41;;;11.69;100.00
18504;BME280;9381;54.244;10.074;2023-11-19T07:57:07;99622.09;;;12.09;100.00
18504;BME280;9381;54.244;10.074;2023-11-19T08:02:07;99626.59;;;12.25;100.00
18504;BME280;9381;54.244;10.074;2023-11-19T08:07:08;99626.31;;;12.48;100.00
18504;BME280;9381;54.244;10.074;2023-11-19T08:12:08;99613.38;;;12.87;100.00
18504;BME280;9381;54.244;10.074;2023-11-19T08:17:08;99609.53;;;13.09;100.00
18504;BME280;9381;54.244;10.074;2023-11-19T08:22:09;99616.72;;;13.25;100.00
18504;BME280;9381;54.244;10.074;2023-11-19T08:27:09;99613.69;;;13.17;100.00
18504;BME280;9381;54.244;10.074;2023-11-19T08:32:09;99611.72;;;13.44;100.00
18504;BME280;9381;54.244;10.074;2023-11-19T08:37:11;99618.47;;;13.41;100.00
18504;BME280;9381;54.244;10.074;2023-11-19T08:42:12;99617.38;;;13.37;100.00
18504;BME280;9381;54.244;10.074;2023-11-19T08:47:12;99626.66;;;13.46;100.00
18504;BME280;9381;54.244;10.074;2023-11-19T08:52:13;99625.53;;;13.37;100.00
18504;BME280;9381;54.244;10.074;2023-11-19T08:57:13;99626.09;;;13.44;100.00
18504;BME280;9381;54.244;10.074;2023-11-19T09:02:13;99635.31;;;13.43;100.00
18504;BME280;9381;54.244;10.074;2023-11-19T09:07:14;99638.09;;;13.48;100.00
18504;BME280;9381;54.244;10.074;2023-11-19T09:12:14;99640.88;;;13.58;100.00
18504;BME280;9381;54.244;10.074;2023-11-19T09:17:14;99648.53;;;13.66;100.00
18504;BME280;9381;54.244;10.074;2023-11-19T09:22:15;99647.25;;;13.84;100.00
18504;BME280;9381;54.244;10.074;2023-11-19T09:27:16;99649.72;;;13.85;100.00
18504;BME280;9381;54.244;10.074;2023-11-19T09:32:16;99652.94;;;13.77;100.00
18504;BME280;9381;54.244;10.074;2023-11-19T09:37:17;99652.34;;;13.65;100.00
18504;BME280;9381;54.244;10.074;2023-11-19T09:42:17;99644.84;;;13.87;100.00
18504;BME280;9381;54.244;10.074;2023-11-19T09:47:18;99653.13;;;13.61;100.00
18504;BME280;9381;54.244;10.074;2023-11-19T09:52:19;99661.16;;;13.87;100.00
18504;BME280;9381;54.244;10.074;2023-11-19T09:57:20;99659.50;;;13.86;100.00
18504;BME280;9381;54.244;10.074;2023-11-19T10:02:21;99660.75;;;13.69;100.00
18504;BME280;9381;54.244;10.074;2023-11-19T10:07:21;99661.63;;;13.79;100.00
18504;BME280;9381;54.244;10.074;2023-11-19T10:12:22;99669.13;;;13.57;100.00
18504;BME280;9381;54.244;10.074;2023-11-19T10:17:27;99664.34;;;13.79;100.00
18504;BME280;9381;54.244;10.074;2023-11-19T10:22:29;99664.66;;;13.83;100.00
18504;BME280;9381;54.244;10.074;2023-11-19T10:27:29;99673.72;;;13.57;100.00
18504;BME280;9381;54.244;10.074;2023-11-19T10:32:30;99682.22;;;13.65;100.00
18504;BME280;9381;54.244;10.074;2023-11-19T10:37:30;99679.75;;;13.64;100.00
18504;BME280;9381;54.244;10.074;2023-11-19T10:42:35;99674.75;;;13.51;100.00
18504;BME280;9381;54.244;10.074;2023-11-19T10:47:38;99677.41;;;13.82;100.00
18504;BME280;9381;54.244;10.074;2023-11-19T10:52:39;99674.16;;;13.80;100.00
18504;BME280;9381;54.244;10.074;2023-11-19T10:57:43;99682.34;;;13.90;100.00
18504;BME280;9381;54.244;10.074;2023-11-19T11:02:45;99675.28;;;13.84;100.00
18504;BME280;9381;54.244;10.074;2023-11-19T11:07:52;99671.22;;;13.92;100.00
18504;BME280;9381;54.244;10.074;2023-11-19T11:12:57;99682.91;;;13.87;100.00
18504;BME280;9381;54.244;10.074;2023-11-19T11:18:01;99675.78;;;13.81;100.00
18504;BME280;9381;54.244;10.074;2023-11-19T11:28:18;99687.13;;;13.68;100.00
18504;BME280;9381;54.244;10.074;2023-11-19T11:33:59;99694.41;;;13.63;100.00
18504;BME280;9381;54.244;10.074;2023-11-19T11:39:03;99690.75;;;13.84;100.00
18504;BME280;9381;54.244;10.074;2023-11-19T11:44:07;99686.09;;;13.79;100.00
18504;BME280;9381;54.244;10.074;2023-11-19T11:49:10;99689.19;;;13.93;100.00
18504;BME280;9381;54.244;10.074;2023-11-19T11:54:25;99683.19;;;13.96;100.00
18504;BME280;9381;54.244;10.074;2023-11-19T11:59:25;99676.44;;;13.98;100.00
18504;BME280;9381;54.244;10.074;2023-11-19T12:04:27;99689.47;;;13.96;100.00
18504;BME280;9381;54.244;10.074;2023-11-19T12:09:28;99686.66;;;13.81;100.00
18504;BME280;9381;54.244;10.074;2023-11-19T12:14:59;99686.47;;;13.93;100.00
18504;BME280;9381;54.244;10.074;2023-11-19T12:20:04;99684.03;;;13.96;100.00
18504;BME280;9381;54.244;10.074;2023-11-19T12:25:07;99688.91;;;13.94;100.00
18504;BME280;9381;54.244;10.074;2023-11-19T12:30:09;99692.38;;;13.85;100.00
18504;BME280;9381;54.244;10.074;2023-11-19T12:35:10;99680.84;;;13.63;100.00
18504;BME280;9381;54.244;10.074;2023-11-19T12:40:24;99682.59;;;13.79;100.00
18504;BME280;9381;54.244;10.074;2023-11-19T12:45:36;99687.22;;;13.83;100.00
18504;BME280;9381;54.244;10.074;2023-11-19T12:50:56;99683.63;;;13.73;100.00
18504;BME280;9381;54.244;10.074;2023-11-19T12:56:08;99694.06;;;13.49;100.00
18504;BME280;9381;54.244;10.074;2023-11-19T13:01:09;99684.97;;;13.70;100.00
18504;BME280;9381;54.244;10.074;2023-11-19T13:06:13;99678.72;;;13.70;100.00
18504;BME280;9381;54.244;10.074;2023-11-19T13:11:32;99680.13;;;13.82;100.00
18504;BME280;9381;54.244;10.074;2023-11-19T13:16:33;99698.28;;;13.72;100.00
18504;BME280;9381;54.244;10.074;2023-11-19T13:21:33;99677.41;;;13.82;100.00
18504;BME280;9381;54.244;10.074;2023-11-19T13:26:34;99683.09;;;13.76;100.00
18504;BME280;9381;54.244;10.074;2023-11-19T13:31:35;99688.88;;;13.84;100.00
18504;BME280;9381;54.244;10.074;2023-11-19T13:36:35;99690.44;;;13.80;100.00
18504;BME280;9381;54.244;10.074;2023-11-19T13:41:35;99674.63;;;13.67;100.00
18504;BME280;9381;54.244;10.074;2023-11-19T13:46:35;99691.28;;;13.81;100.00
18504;BME280;9381;54.244;10.074;2023-11-19T13:51:36;99694.81;;;13.45;100.00
18504;BME280;9381;54.244;10.074;2023-11-19T13:56:36;99695.06;;;13.43;100.00
18504;BME280;9381;54.244;10.074;2023-11-19T14:01:36;99697.31;;;13.51;100.00
18504;BME280;9381;54.244;10.074;2023-11-19T14:06:37;99704.00;;;13.39;100.00
18504;BME280;9381;54.244;10.074;2023-11-19T14:11:37;99695.75;;;13.60;100.00
18504;BME280;9381;54.244;10.074;2023-11-19T14:16:37;99701.78;;;13.67;100.00
18504;BME280;9381;54.244;10.074;2023-11-19T14:21:37;99705.22;;;13.53;100.00
18504;BME280;9381;54.244;10.074;2023-11-19T14:26:38;99709.50;;;13.49;100.00
18504;BME280;9381;54.244;10.074;2023-11-19T14:31:38;99701.50;;;13.64;100.00
18504;BME280;9381;54.244;10.074;2023-11-19T14:36:40;99713.53;;;13.41;100.00
18504;BME280;9381;54.244;10.074;2023-11-19T14:41:40;99708.97;;;13.15;100.00
18504;BME280;9381;54.244;10.074;2023-11-19T14:46:40;99717.06;;;13.10;100.00
18504;BME280;9381;54.244;10.074;2023-11-19T14:51:41;99714.84;;;13.07;100.00
18504;BME280;9381;54.244;10.074;2023-11-19T14:56:41;99723.91;;;13.18;100.00
18504;BME280;9381;54.244;10.074;2023-11-19T15:01:45;99720.44;;;13.22;100.00
18504;BME280;9381;54.244;10.074;2023-11-19T15:06:45;99736.09;;;13.15;100.00
18504;BME280;9381;54.244;10.074;2023-11-19T15:11:45;99731.28;;;13.22;100.00
18504;BME280;9381;54.244;10.074;2023-11-19T15:16:47;99736.56;;;13.07;100.00
18504;BME280;9381;54.244;10.074;2023-11-19T15:21:47;99744.78;;;13.12;100.00
18504;BME280;9381;54.244;10.074;2023-11-19T15:26:48;99741.59;;;13.20;100.00
18504;BME280;9381;54.244;10.074;2023-11-19T15:31:48;99740.75;;;13.20;100.00
18504;BME280;9381;54.244;10.074;2023-11-19T15:36:49;99746.03;;;13.05;100.00
18504;BME280;9381;54.244;10.074;2023-11-19T15:41:49;99757.47;;;13.07;100.00
18504;BME280;9381;54.244;10.074;2023-11-19T15:46:49;99755.53;;;13.02;100.00
18504;BME280;9381;54.244;10.074;2023-11-19T15:51:50;99750.75;;;13.14;100.00
18504;BME280;9381;54.244;10.074;2023-11-19T15:56:50;99770.19;;;13.01;100.00
18504;BME280;9381;54.244;10.074;2023-11-19T16:01:50;99771.75;;;12.97;100.00
18504;BME280;9381;54.244;10.074;2023-11-19T16:06:51;99775.13;;;13.09;100.00
18504;BME280;9381;54.244;10.074;2023-11-19T16:11:51;99782.59;;;12.97;100.00
18504;BME280;9381;54.244;10.074;2023-11-19T16:16:51;99771.09;;;12.90;100.00
18504;BME280;9381;54.244;10.074;2023-11-19T16:21:53;99770.50;;;12.83;100.00
18504;BME280;9381;54.244;10.074;2023-11-19T16:26:53;99778.75;;;12.93;100.00
18504;BME280;9381;54.244;10.074;2023-11-19T16:31:53;99774.75;;;12.79;100.00
18504;BME280;9381;54.244;10.074;2023-11-19T16:36:54;99775.59;;;12.80;100.00
18504;BME280;9381;54.244;10.074;2023-11-19T16:41:54;99791.31;;;12.99;100.00
18504;BME280;9381;54.244;10.074;2023-11-19T16:46:55;99792.31;;;12.93;100.00
18504;BME280;9381;54.244;10.074;2023-11-19T16:51:56;99786.41;;;12.96;100.00
18504;BME280;9381;54.244;10.074;2023-11-19T16:56:56;99783.13;;;12.94;100.00
18504;BME280;9381;54.244;10.074;2023-11-19T17:01:57;99786.69;;;12.78;100.00
18504;BME280;9381;54.244;10.074;2023-11-19T17:06:57;99791.31;;;12.78;100.00
18504;BME280;9381;54.244;10.074;2023-11-19T17:11:57;99801.91;;;12.79;100.00
18504;BME280;9381;54.244;10.074;2023-11-19T17:16:58;99804.56;;;12.74;100.00
18504;BME280;9381;54.244;10.074;2023-11-19T17:21:58;99797.63;;;12.83;100.00
18504;BME280;9381;54.244;10.074;2023-11-19T17:26:58;99810.66;;;12.65;100.00
18504;BME280;9381;54.244;10.074;2023-11-19T17:31:59;99809.69;;;12.71;100.00
18504;BME280;9381;54.244;10.074;2023-11-19T17:36:59;99820.84;;;12.74;100.00
18504;BME280;9381;54.244;10.074;2023-11-19T17:41:59;99815.22;;;12.59;100.00
18504;BME280;9381;54.244;10.074;2023-11-19T17:46:59;99814.44;;;12.42;100.00
18504;BME280;9381;54.244;10.074;2023-11-19T17:52:00;99820.44;;;12.44;100.00
18504;BME280;9381;54.244;10.074;2023-11-19T17:57:00;99819.84;;;12.42;100.00
18504;BME280;9381;54.244;10.074;2023-11-19T18:02:00;99811.44;;;12.60;100.00
18504;BME280;9381;54.244;10.074;2023-11-19T18:07:02;99815.78;;;12.61;100.00
18504;BME280;9381;54.244;10.074;2023-11-19T18:12:03;99821.19;;;12.61;100.00
18504;BME280;9381;54.244;10.074;2023-11-19T18:17:04;99817.84;;;12.54;100.00
18504;BME280;9381;54.244;10.074;2023-11-19T18:22:04;99820.00;;;12.52;100.00
18504;BME280;9381;54.244;10.074;2023-11-19T18:27:05;99816.09;;;12.65;100.00
18504;BME280;9381;54.244;10.074;2023-11-19T18:32:05;99814.59;;;12.74;100.00
18504;BME280;9381;54.244;10.074;2023-11-19T18:37:09;99823.47;;;12.69;100.00
18504;BME280;9381;54.244;10.074;2023-11-19T18:42:09;99813.63;;;12.63;100.00
18504;BME280;9381;54.244;10.074;2023-11-19T18:47:10;99816.22;;;12.75;100.00
18504;BME280;9381;54.244;10.074;2023-11-19T18:52:10;99812.44;;;12.76;100.00
18504;BME280;9381;54.244;10.074;2023-11-19T18:57:11;99824.41;;;12.96;100.00
18504;BME280;9381;54.244;10.074;2023-11-19T19:02:11;99814.38;;;12.97;100.00
18504;BME280;9381;54.244;10.074;2023-11-19T19:07:12;99809.44;;;12.94;100.00
18504;BME280;9381;54.244;10.074;2023-11-19T19:12:12;99825.06;;;12.65;100.00
18504;BME280;9381;54.244;10.074;2023-11-19T19:17:13;99826.63;;;12.83;100.00
18504;BME280;9381;54.244;10.074;2023-11-19T19:22:14;99834.00;;;12.66;100.00
18504;BME280;9381;54.244;10.074;2023-11-19T19:27:14;99840.28;;;12.66;100.00
18504;BME280;9381;54.244;10.074;2023-11-19T19:32:15;99842.97;;;12.66;100.00
18504;BME280;9381;54.244;10.074;2023-11-19T19:37:15;99848.00;;;12.58;100.00
18504;BME280;9381;54.244;10.074;2023-11-19T19:42:15;99834.34;;;12.69;100.00
18504;BME280;9381;54.244;10.074;2023-11-19T19:47:16;99838.25;;;12.78;100.00
18504;BME280;9381;54.244;10.074;2023-11-19T19:52:17;99842.19;;;12.49;100.00
18504;BME280;9381;54.244;10.074;2023-11-19T19:57:18;99846.56;;;12.50;100.00
18504;BME280;9381;54.244;10.074;2023-11-19T20:02:18;99845.25;;;12.36;100.00
18504;BME280;9381;54.244;10.074;2023-11-19T20:07:18;99846.28;;;12.30;100.00
18504;BME280;9381;54.244;10.074;2023-11-19T20:12:18;99844.53;;;12.62;100.00
18504;BME280;9381;54.244;10.074;2023-11-19T20:17:19;99848.84;;;12.58;100.00
18504;BME280;9381;54.244;10.074;2023-11-19T20:22:19;99848.84;;;12.58;100.00
18504;BME280;9381;54.244;10.074;2023-11-19T20:27:20;99842.56;;;12.74;100.00
18504;BME280;9381;54.244;10.074;2023-11-19T20:32:20;99846.94;;;12.59;100.00
18504;BME280;9381;54.244;10.074;2023-11-19T20:37:21;99852.13;;;12.60;100.00
18504;BME280;9381;54.244;10.074;2023-11-19T20:42:21;99854.19;;;12.53;100.00
18504;BME280;9381;54.244;10.074;2023-11-19T20:47:21;99853.81;;;12.45;100.00
18504;BME280;9381;54.244;10.074;2023-11-19T20:52:22;99866.66;;;12.33;100.00
18504;BME280;9381;54.244;10.074;2023-11-19T20:57:22;99857.91;;;12.47;100.00
18504;BME280;9381;54.244;10.074;2023-11-19T21:02:23;99862.81;;;12.50;100.00
18504;BME280;9381;54.244;10.074;2023-11-19T21:07:23;99857.13;;;12.68;100.00
18504;BME280;9381;54.244;10.074;2023-11-19T21:12:24;99862.16;;;12.60;100.00
18504;BME280;9381;54.244;10.074;2023-11-19T21:17:24;99856.56;;;12.66;100.00
18504;BME280;9381;54.244;10.074;2023-11-19T21:22:25;99858.31;;;12.77;100.00
18504;BME280;9381;54.244;10.074;2023-11-19T21:27:25;99856.69;;;12.76;100.00
18504;BME280;9381;54.244;10.074;2023-11-19T21:32:29;99856.81;;;12.86;100.00
18504;BME280;9381;54.244;10.074;2023-11-19T21:37:29;99854.91;;;12.65;100.00
18504;BME280;9381;54.244;10.074;2023-11-19T21:42:30;99856.34;;;12.73;100.00
18504;BME280;9381;54.244;10.074;2023-11-19T21:47:30;99857.53;;;12.60;100.00
18504;BME280;9381;54.244;10.074;2023-11-19T21:52:33;99851.25;;;12.76;100.00
18504;BME280;9381;54.244;10.074;2023-11-19T21:57:35;99843.63;;;12.95;100.00
18504;BME280;9381;54.244;10.074;2023-11-19T22:02:35;99850.75;;;12.79;100.00
18504;BME280;9381;54.244;10.074;2023-11-19T22:07:36;99840.97;;;12.78;100.00
18504;BME280;9381;54.244;10.074;2023-11-19T22:12:36;99835.63;;;12.83;100.00
18504;BME280;9381;54.244;10.074;2023-11-19T22:17:37;99841.31;;;13.03;100.00
18504;BME280;9381;54.244;10.074;2023-11-19T22:22:37;99837.31;;;13.11;100.00
18504;BME280;9381;54.244;10.074;2023-11-19T22:27:41;99831.66;;;13.12;100.00
18504;BME280;9381;54.244;10.074;2023-11-19T22:32:41;99837.53;;;13.04;100.00
18504;BME280;9381;54.244;10.074;2023-11-19T22:37:41;99832.63;;;13.01;100.00
18504;BME280;9381;54.244;10.074;2023-11-19T22:42:41;99833.22;;;13.08;100.00
18504;BME280;9381;54.244;10.074;2023-11-19T22:47:42;99824.72;;;13.26;100.00
18504;BME280;9381;54.244;10.074;2023-11-19T22:52:43;99831.69;;;13.17;100.00
18504;BME280;9381;54.244;10.074;2023-11-19T22:57:44;99834.47;;;13.22;100.00
18504;BME280;9381;54.244;10.074;2023-11-19T23:02:45;99838.28;;;13.21;100.00
18504;BME280;9381;54.244;10.074;2023-11-19T23:07:45;99841.34;;;13.30;100.00
18504;BME280;9381;54.244;10.074;2023-11-19T23:12:46;99842.09;;;13.25;100.00
18504;BME280;9381;54.244;10.074;2023-11-19T23:17:47;99833.31;;;13.18;100.00
18504;BME280;9381;54.244;10.074;2023-11-19T23:22:47;99838.16;;;13.11;100.00
18504;BME280;9381;54.244;10.074;2023-11-19T23:27:47;99846.44;;;13.26;100.00
18504;BME280;9381;54.244;10.074;2023-11-19T23:32:48;99837.22;;;13.27;100.00
18504;BME280;9381;54.244;10.074;2023-11-19T23:37:48;99848.56;;;13.19;100.00
18504;BME280;9381;54.244;10.074;2023-11-19T23:42:49;99845.22;;;13.12;100.00
18504;BME280;9381;54.244;10.074;2023-11-19T23:47:49;99847.88;;;13.07;100.00
18504;BME280;9381;54.244;10.074;2023-11-19T23:52:50;99840.09;;;13.16;100.00
18504;BME280;9381;54.244;10.074;2023-11-19T23:57:50;99851.78;;;13.16;100.00
